This is the latest recevied weather packets stored in our database for station/object N4QD-13. If no packets are shown the sender has not sent any weather packets the latest 10 day(s).
| Time | Temp. | Humidity | Pressure | Rain* | Wind** | Luminosity | Snow |
|---|---|---|---|---|---|---|---|
| 1777695364 | 12.78° C | 67% | 1014.6 hPa | 0 mm | - | 0 W/m² | - |
| 1777695061 | 12.78° C | 66% | 1014.8 hPa | 0 mm | - | 0 W/m² | - |
| 1777694757 | 12.78° C | 67% | 1014.6 hPa | 0 mm | - | 0 W/m² | - |
| 1777694455 | 13.33° C | 66% | 1014.5 hPa | 0 mm | - | 0 W/m² | - |
| 1777694150 | 13.33° C | 66% | 1014.5 hPa | 0 mm | - | 0 W/m² | - |
| 1777693848 | 13.33° C | 67% | 1014.5 hPa | 0 mm | - | 0 W/m² | - |
| 1777693546 | 13.33° C | 67% | 1014.6 hPa | 0 mm | - | 0 W/m² | - |
| 1777693244 | 13.33° C | 66% | 1014.3 hPa | 0 mm | - | 0 W/m² | - |
| 1777692942 | 13.33° C | 66% | 1013.8 hPa | 0 mm | - | 0 W/m² | - |
| 1777692639 | 13.89° C | 65% | 1013.9 hPa | 0 mm | - | 0 W/m² | - |
| 1777692335 | 13.89° C | 63% | 1014 hPa | 0 mm | - | 0 W/m² | - |
| 1777692032 | 14.44° C | 61% | 1013.9 hPa | 0 mm | - | 0 W/m² | - |
| 1777691730 | 14.44° C | 61% | 1013.7 hPa | 0 mm | - | 0 W/m² | - |
| 1777691427 | 14.44° C | 60% | 1013.9 hPa | 0 mm | - | 0 W/m² | - |
| 1777691126 | 14.44° C | 60% | 1013.6 hPa | 0 mm | - | 0 W/m² | - |
| 1777690823 | 14.44° C | 59% | 1013.8 hPa | 0 mm | - | 0 W/m² | - |
| 1777690520 | 14.44° C | 58% | 1013.6 hPa | 0 mm | - | 0 W/m² | - |
| 1777690219 | 14.44° C | 58% | 1013.7 hPa | 0 mm | - | 0 W/m² | - |
| 1777689915 | 15° C | 57% | 1013.7 hPa | 0 mm | - | 0 W/m² | - |
| 1777689614 | 15° C | 55% | 1013.3 hPa | 0 mm | - | 0 W/m² | - |
| 1777689311 | 14.44° C | 57% | 1013 hPa | 0 mm | - | 0 W/m² | - |
| 1777689009 | 14.44° C | 60% | 1013 hPa | 0 mm | - | 0 W/m² | - |
| 1777688705 | 13.89° C | 64% | 1012.9 hPa | 0 mm | - | 0 W/m² | - |
| 1777688403 | 13.33° C | 69% | 1013 hPa | 0 mm | - | 0 W/m² | - |
| 1777688100 | 13.33° C | 68% | 1012.8 hPa | 0 mm | - | 0 W/m² | - |
* Rain latest hour (hover to see other rain measurements)
** Current wind speed in m/s (hover to see current wind gust speed)